Time,TemperatureF,DewpointF,PressureIn,WindDirection,WindDirectionDegrees,WindSpeedMPH,WindSpeedGustMPH,Humidity,HourlyPrecipIn,Conditions,Clouds,dailyrainin,SoftwareType,DateUTC
2013-01-10 21:01:00,50.9,22.8,30.29,North,0,4.6,0.0,33,0.00,CLR,,0.00,WeatherDisplay:10.37,2013-01-11 02:01:00,
2013-01-10 21:07:00,50.9,22.8,30.29,North,0,4.6,0.0,33,0.00,CLR,,0.00,WeatherDisplay:10.37,2013-01-11 02:07:00,
2013-01-10 21:12:00,50.9,22.8,30.29,North,0,4.6,0.0,33,0.00,CLR,,0.00,WeatherDisplay:10.37,2013-01-11 02:12:00,
2013-01-10 21:17:00,45.5,34.0,30.40,NW,315,2.3,2.3,64,0.00,CLR,,0.00,WeatherDisplay:10.37,2013-01-11 02:17:00,
2013-01-10 21:22:00,45.9,33.6,30.40,West,270,2.3,2.3,62,0.00,CLR,,0.00,WeatherDisplay:10.37,2013-01-11 02:22:00,
2013-01-10 21:27:00,45.9,33.6,30.40,West,270,2.3,2.3,62,0.00,CLR,,0.00,WeatherDisplay:10.37,2013-01-11 02:27:00,
2013-01-10 21:32:00,45.9,33.6,30.39,NW,315,2.3,2.3,62,0.00,CLR,,0.00,WeatherDisplay:10.37,2013-01-11 02:32:00,
2013-01-10 21:37:00,45.9,33.6,30.39,NNE,14,2.3,2.3,62,0.00,CLR,,0.00,WeatherDisplay:10.37,2013-01-11 02:37:00,
2013-01-10 21:43:00,45.9,33.6,30.39,North,0,2.3,2.3,62,0.00,CLR,,0.00,WeatherDisplay:10.37,2013-01-11 02:43:00,
2013-01-10 21:48:00,45.9,33.6,30.39,North,0,2.3,2.3,62,0.00,CLR,,0.00,WeatherDisplay:10.37,2013-01-11 02:48:00,
2013-01-10 21:53:00,45.9,33.6,30.39,North,0,2.3,2.3,62,0.00,CLR,,0.00,WeatherDisplay:10.37,2013-01-11 02:53:00,
2013-01-10 21:58:00,45.9,33.6,30.39,North,0,2.3,2.3,62,0.00,CLR,,0.00,WeatherDisplay:10.37,2013-01-11 02:58:00,
2013-01-10 22:03:00,45.9,33.6,30.39,North,0,2.3,2.3,62,0.00,CLR,,0.00,WeatherDisplay:10.37,2013-01-11 03:03:00,
2013-01-10 22:08:00,45.9,33.6,30.39,North,0,2.3,2.3,62,0.00,CLR,,0.00,WeatherDisplay:10.37,2013-01-11 03:08:00,
2013-01-10 22:13:00,45.9,33.6,30.39,North,0,2.3,2.3,62,0.00,CLR,,0.00,WeatherDisplay:10.37,2013-01-11 03:13:00,
2013-01-10 22:18:00,45.9,33.6,30.39,North,0,2.3,2.3,62,0.00,CLR,,0.00,WeatherDisplay:10.37,2013-01-11 03:18:00,
2013-01-10 22:23:00,45.9,33.6,30.39,North,0,2.3,2.3,62,0.00,CLR,,0.00,WeatherDisplay:10.37,2013-01-11 03:23:00,
2013-01-10 22:28:00,30.2,22.6,30.39,North,3,1.1,1.1,73,0.13,RA,,0.13,WeatherDisplay:10.37,2013-01-11 03:28:00,
2013-01-10 22:33:00,43.9,33.3,30.39,East,90,2.3,0.0,66,0.13,RA,,0.13,WeatherDisplay:10.37,2013-01-11 03:33:00,
2013-01-10 22:38:00,43.0,33.5,30.38,NW,315,1.1,0.0,69,0.13,,,0.13,WeatherDisplay:10.37,2013-01-11 03:38:00,
2013-01-10 22:43:00,42.8,33.3,30.39,South,180,1.1,1.1,69,0.13,CLR,,0.13,WeatherDisplay:10.37,2013-01-11 03:43:00,
2013-01-10 22:48:00,43.0,33.5,30.38,SW,225,3.5,3.5,69,0.13,CLR,,0.13,WeatherDisplay:10.37,2013-01-11 03:48:00,
2013-01-10 22:54:00,43.2,33.3,30.39,West,270,3.5,3.5,68,0.13,CLR,,0.13,WeatherDisplay:10.37,2013-01-11 03:54:00,
2013-01-10 22:59:00,43.3,33.5,30.39,SW,225,3.5,3.5,68,0.13,CLR,,0.13,WeatherDisplay:10.37,2013-01-11 03:59:00,
2013-01-10 23:04:00,43.2,33.3,30.38,SE,135,2.3,2.3,68,0.13,CLR,,0.13,WeatherDisplay:10.37,2013-01-11 04:04:00,
2013-01-10 23:09:00,42.4,33.0,30.38,SW,225,2.3,2.3,69,0.13,CLR,,0.13,WeatherDisplay:10.37,2013-01-11 04:09:00,
2013-01-10 23:14:00,42.6,33.2,30.38,SE,135,3.5,3.5,69,0.13,CLR,,0.13,WeatherDisplay:10.37,2013-01-11 04:14:00,
2013-01-10 23:19:00,42.3,32.8,30.38,NW,315,3.5,3.5,69,0.13,CLR,,0.13,WeatherDisplay:10.37,2013-01-11 04:19:00,
2013-01-10 23:24:00,42.8,33.3,30.38,NW,315,3.5,0.0,69,0.13,CLR,,0.13,WeatherDisplay:10.37,2013-01-11 04:24:00,
2013-01-10 23:29:00,43.0,33.1,30.37,West,270,3.5,3.5,68,0.00,CLR,,0.13,WeatherDisplay:10.37,2013-01-11 04:29:00,
2013-01-10 23:34:00,43.5,33.7,30.37,NW,315,2.3,2.3,68,0.00,CLR,,0.13,WeatherDisplay:10.37,2013-01-11 04:34:00,
2013-01-10 23:39:00,43.9,33.6,30.36,West,270,2.3,0.0,67,0.00,CLR,,0.13,WeatherDisplay:10.37,2013-01-11 04:39:00,
2013-01-10 23:44:00,44.4,33.8,30.37,West,270,3.5,3.5,66,0.00,CLR,,0.13,WeatherDisplay:10.37,2013-01-11 04:44:00,
2013-01-10 23:49:00,44.2,33.6,30.37,West,270,3.5,3.5,66,0.00,CLR,,0.13,WeatherDisplay:10.37,2013-01-11 04:49:00,
2013-01-10 23:54:00,45.1,34.5,30.36,SE,135,3.5,3.5,66,0.00,CLR,,0.13,WeatherDisplay:10.37,2013-01-11 04:54:00,
2013-01-10 23:59:00,45.3,33.9,30.37,NW,315,5.8,5.8,64,0.00,CLR,,0.13,WeatherDisplay:10.37,2013-01-11 04:59:00,